Map

Track Data

SID SEASON NUMBER BASIN SUBBASIN NAME ISO_TIME NATURE LAT LON WMO_WIND WMO_PRES WMO_AGENCY TRACK_TYPE DIST2LAND LANDFALL IFLAG USA_AGENCY USA_ATCF_ID USA_LAT USA_LON USA_RECORD USA_STATUS USA_WIND USA_PRES USA_SSHS USA_R34_NE USA_R34_SE USA_R34_SW USA_R34_NW USA_R50_NE USA_R50_SE USA_R50_SW USA_R50_NW USA_R64_NE USA_R64_SE USA_R64_SW USA_R64_NW USA_POCI USA_ROCI USA_RMW USA_EYE TOKYO_LAT TOKYO_LON TOKYO_GRADE TOKYO_WIND TOKYO_PRES TOKYO_R50_DIR TOKYO_R50_LONG TOKYO_R50_SHORT TOKYO_R30_DIR TOKYO_R30_LONG TOKYO_R30_SHORT TOKYO_LAND CMA_LAT CMA_LON CMA_CAT CMA_WIND CMA_PRES HKO_LAT HKO_LON HKO_CAT HKO_WIND HKO_PRES NEWDELHI_LAT NEWDELHI_LON NEWDELHI_GRADE NEWDELHI_WIND NEWDELHI_PRES NEWDELHI_CI NEWDELHI_DP NEWDELHI_POCI REUNION_LAT REUNION_LON REUNION_TYPE REUNION_WIND REUNION_PRES REUNION_TNUM REUNION_CI REUNION_RMW REUNION_R34_NE REUNION_R34_SE REUNION_R34_SW REUNION_R34_NW REUNION_R50_NE REUNION_R50_SE REUNION_R50_SW REUNION_R50_NW REUNION_R64_NE REUNION_R64_SE REUNION_R64_SW REUNION_R64_NW BOM_LAT BOM_LON BOM_TYPE BOM_WIND BOM_PRES BOM_TNUM BOM_CI BOM_RMW BOM_R34_NE BOM_R34_SE BOM_R34_SW BOM_R34_NW BOM_R50_NE BOM_R50_SE BOM_R50_SW BOM_R50_NW BOM_R64_NE BOM_R64_SE BOM_R64_SW BOM_R64_NW BOM_ROCI BOM_POCI BOM_EYE BOM_POS_METHOD BOM_PRES_METHOD NADI_LAT NADI_LON NADI_CAT NADI_WIND NADI_PRES WELLINGTON_LAT WELLINGTON_LON WELLINGTON_WIND WELLINGTON_PRES DS824_LAT DS824_LON DS824_STAGE DS824_WIND DS824_PRES TD9636_LAT TD9636_LON TD9636_STAGE TD9636_WIND TD9636_PRES TD9635_LAT TD9635_LON TD9635_WIND TD9635_PRES TD9635_ROCI NEUMANN_LAT NEUMANN_LON NEUMANN_CLASS NEUMANN_WIND NEUMANN_PRES MLC_LAT MLC_LON MLC_CLASS MLC_WIND MLC_PRES USA_GUST BOM_GUST BOM_GUST_PER REUNION_GUST REUNION_GUST_PER USA_SEAHGT USA_SEARAD_NE USA_SEARAD_SE USA_SEARAD_SW USA_SEARAD_NW STORM_SPEED STORM_DIR
1907230N23088 1907 39 NI BB NOT_NAMED 1907-08-18 00:00:00 TS 22.9000 88.3000 main 0 0 _________O____ -1 22.9000 88.3000 TC 30 1 231
1907230N23088 1907 39 NI BB NOT_NAMED 1907-08-18 03:00:00 TS 22.8650 88.2667 main 0 0 _________PO___ -1 22.8475 88.2500 TC 30 22.9000 88.3000 1 1 227
1907230N23088 1907 39 NI BB NOT_NAMED 1907-08-18 06:00:00 TS 22.8231 88.2181 main 0 0 _________OP___ -1 22.8000 88.2000 TC 30 22.8578 88.2453 1 1 225
1907230N23088 1907 39 NI BB NOT_NAMED 1907-08-18 09:00:00 TS 22.7811 88.1682 main 0 0 _________PP___ -1 22.7575 88.1500 TC 30 22.8125 88.1925 1 1 222
1907230N23088 1907 39 NI BB NOT_NAMED 1907-08-18 12:00:00 TS 22.7305 88.1217 main 0 0 _________OP___ -1 22.7000 88.1000 TC 30 22.7610 88.1434 1 2 214
1907230N23088 1907 39 NI BB NOT_NAMED 1907-08-18 15:00:00 TS 22.6500 88.0750 main 0 0 _________PO___ -1 22.6000 88.0500 TC 30 22.7000 88.1000 1 2 206
1907230N23088 1907 39 NI BB NOT_NAMED 1907-08-18 18:00:00 TS 22.5640 88.0311 main 0 0 _________OP___ -1 22.5000 88.0000 TC 30 22.6281 88.0622 1 2 207
1907230N23088 1907 39 NI BB NOT_NAMED 1907-08-18 21:00:00 TS 22.4962 87.9900 main 0 0 _________PP___ -1 22.4425 87.9575 TC 30 22.5499 88.0225 1 2 213
1907230N23088 1907 39 NI BB NOT_NAMED 1907-08-19 00:00:00 TS 22.4359 87.9358 main 0 0 _________OP___ -1 22.4000 87.9000 TC 30 22.4718 87.9716 1 2 225
1907230N23088 1907 39 NI BB NOT_NAMED 1907-08-19 03:00:00 TS 22.3750 87.8575 main 0 0 _________PO___ -1 22.3500 87.8150 TC 30 22.4000 87.9000 1 2 237
1907230N23088 1907 39 NI BB NOT_NAMED 1907-08-19 06:00:00 TS 22.3194 87.7462 main 0 0 _________OP___ -1 22.3000 87.7000 TC 30 22.3388 87.7925 1 3 245
1907230N23088 1907 39 NI BB NOT_NAMED 1907-08-19 09:00:00 TS 22.2675 87.6075 main 0 0 _________PP___ -1 22.2500 87.5500 TC 30 22.2851 87.6650 1 3 249
1907230N23088 1907 39 NI BB NOT_NAMED 1907-08-19 12:00:00 TS 22.2194 87.4650 main 0 0 _________OP___ -1 22.2000 87.4000 TC 30 22.2388 87.5300 1 3 248
1907230N23088 1907 39 NI BB NOT_NAMED 1907-08-19 15:00:00 TS 22.1712 87.3463 main 0 0 _________PO___ -1 22.1425 87.2925 TC 30 22.2000 87.4000 1 2 242
1907230N23088 1907 39 NI BB NOT_NAMED 1907-08-19 18:00:00 TS 22.1235 87.2747 main 0 0 _________OP___ -1 22.1000 87.2000 TC 30 22.1470 87.3495 1 1 236
1907230N23088 1907 39 NI BB NOT_NAMED 1907-08-19 21:00:00 TS 22.0944 87.2248 main 0 0 _________PP___ -1 22.0848 87.1525 TC 30 22.1041 87.2971 1 2 259
1907230N23088 1907 39 NI BB NOT_NAMED 1907-08-20 00:00:00 TS 22.0921 87.0981 main 0 0 _________OP___ -1 22.1000 87.0000 TC 30 22.0842 87.1962 1 4 273
1907230N23088 1907 39 NI BB NOT_NAMED 1907-08-20 03:00:00 TS 22.1138 86.8012 main 0 0 _________PO___ -1 22.1277 86.6024 TC 30 22.1000 87.0000 1 7 276
1907230N23088 1907 39 NI BB NOT_NAMED 1907-08-20 06:00:00 TS 22.1682 86.3671 main 0 0 _________OP___ -1 22.2000 86.1000 TC 30 22.1365 86.6342 1 8 281
1907230N23088 1907 39 NI BB NOT_NAMED 1907-08-20 09:00:00 TS 22.2693 85.9086 main 0 0 _________PP___ -1 22.3274 85.6425 TC 30 22.2112 86.1747 1 9 286
1907230N23088 1907 39 NI BB NOT_NAMED 1907-08-20 12:00:00 TS 22.4151 85.4389 main 0 0 _________OP___ -1 22.5000 85.2000 TC 30 22.3302 85.6778 1 9 290
1907230N23088 1907 39 NI BB NOT_NAMED 1907-08-20 15:00:00 TS 22.5850 84.9887 main 0 0 _________PO___ -1 22.6699 84.7773 TC 30 22.5000 85.2000 1 8 297
1907230N23088 1907 39 NI BB NOT_NAMED 1907-08-20 18:00:00 TS 22.7995 84.6200 main 0 0 _________OP___ -1 22.9000 84.4000 TC 30 22.7241 84.7850 1 8 308
1907230N23088 1907 39 NI BB NOT_NAMED 1907-08-20 21:00:00 TS 23.0842 84.2888 main 0 0 _________PP___ -1 23.2226 84.0829 TC 30 22.9919 84.4262 1 8 316
1907230N23088 1907 39 NI BB NOT_NAMED 1907-08-21 00:00:00 TS 23.3925 84.0028 main 0 0 _________OP___ -1 23.6000 83.8000 TC 30 23.2888 84.1042 1 7 319
1907230N23088 1907 39 NI BB NOT_NAMED 1907-08-21 03:00:00 NR 23.6000 83.8000 main 0 __________O___ -1 TC 23.6000 83.8000 1 6 319

About IBTrACS Database

This database is a web-friendly format of International Best Track Archive for Climate Stewardship (IBTrACS), a global best track data archive curated by NOAA dating back to 1842.

Updated: 2021-11-26